Sunday, February 01, 2015
16:38 UTC
  |  Log In   |  Register Free
Airport Search:

De Kalb County Airport
(KGWB)

De Kalb County Airport Diagram
No Airport Diagram Available

FAA data valid effective January 08, 2015 - March 05, 2015 (unless otherwise noted).

 
 
 
 
 
 
 
 
 
 
 
 
 
 

Current Aviation Weather for De Kalb County Airport (KGWB)

The most recent METAR observation for KGWB was updated at: 1617
METAR Summary (Translated METAR)
KGWB
011555Z AUTO 08013G16KT 1SM -SN OVC005 00/M02 A2996 RMK AO2 P0001
KANQ
011635Z AUTO 10014KT 3/4SM OVC006 M04/M05 A2995 RMK
(20 nm NW from KGWB)
KFWA
011554Z 08012KT 2 1/2SM -RASN BR BKN006 OVC019 01/00 A2992 RMK AO2 RAB18SNB35 SLP140 P0000 T00110000
(20.6 nm SW from KGWB)
TAF Summary (Translated TAF)
KFWA
(20.6 nm SW from KGWB)
011140Z 0112/0212 10006KT 2SM -SN OVC005 TEMPO 0112/0116 3/4SM -SN OVC003 FM011600 07012KT 3/4SM -SN VV004 FM011800 07013G23KT 1/4SM SN FZFG VV003 FM012300 06016G26KT 3/4SM -SN BLSN VV004 FM020700 02016G24KT 1 1/2SM -SN BLSN OVC006
  Airport Weather Conditions for KGWB

 Current Weather at GWB
32° F
Light Snow
East winds at 11.5 mph
GWB NOAA Radar

Pressure: 29.96 in
Humidity: 93%
Wind: East at 11.5 MPH (10 KT)
Dew Point: 30.2°F
Visibility: 0.75 mi


Airport Weather Forecast for KGWB

Translated METAR and TAF for KGWB
Translated METAR for KGWB (1638 UTC 01 February 2015)
found at http://aviationweather.gov/adds/metars/
 
METAR text: KGWB 011615Z AUTO 07013G17KT 1/2SM -SN OVC005 M01/M02 A2994 RMK AO2 P0001
Conditions at: KGWB (AUBURN DEKALB C , IN, US) observed 1615 UTC 01 February 2015
Temperature: -1.0°C (30°F)
Dewpoint: -2.0°C (28°F) [RH = 93%]
Pressure (altimeter): 29.94 inches Hg (1014.0 mb)
Winds: from the ENE (70 degrees) at 15 MPH (13 knots; 6.8 m/s)
gusting to 20 MPH (17 knots; 8.8 m/s)
Visibility: 0.50 miles (0.80 km)
Ceiling: 500 feet AGL
Clouds: overcast cloud deck at 500 feet AGL
Weather: -SN  (light snow)
Translated TAF for KGWB

There is no translated TAF available for this airport

Find All Airport Services Find A Hotel Find A Rental Car Find A Golf Course Find A Restaurant $100 Hamburger



FBO's on the Field
FBO Company Facility Photos Services Transportation Aviation Fuel Prices: Prices include tax
Catering Weather Repair Courtesy Rental Type 100LL JetA JetA+ MOGAS 8087
 
Century Aviation

This FBO has not yet been rated
FS:Shell
Last Updated: Jan-01
Login to update fuel prices
SS:
Contact Century AviationMore FBO Information
 
Add another FBO Facility Photos Catering Weather Repair Courtesy Rental Type 100LL JetA JetA+ MOGAS 8087
Services Transportation Aviation Fuel Prices: Prices include tax


model-print
model-print
model-print
model-print